Time;durP1;ratioP1;P1;durP2;ratioP2;P2;SDS_P1;SDS_P2;PMS_P1;PMS_P2;Temp;Humidity;BMP_temperature;BMP_pressure;BME280_temperature;BME280_humidity;BME280_pressure;Samples;Min_cycle;Max_cycle;Signal;HPM_P1;HPM_P2
2022/07/04 00:01:23;;;;;;;5.70;3.40;;;;;;;;;;5022529;28;20675;-63
2022/07/04 00:03:50;;;;;;;6.22;3.03;;;15.40;75.00;;;;;;5024684;28;20249;-63
2022/07/04 00:06:17;;;;;;;6.53;3.33;;;;;;;;;;5021007;28;20201;-62
2022/07/04 00:08:44;;;;;;;3.63;3.33;;;15.60;75.60;;;;;;5032850;28;20197;-62
2022/07/04 00:11:11;;;;;;;6.60;2.97;;;15.60;75.70;;;;;;5023198;28;20238;-63
2022/07/04 00:13:38;;;;;;;6.78;3.42;;;15.60;76.80;;;;;;5035924;28;20230;-63
2022/07/04 00:16:06;;;;;;;5.63;3.10;;;15.50;73.30;;;;;;5045131;28;20201;-64
2022/07/04 00:18:34;;;;;;;3.45;3.15;;;15.50;77.20;;;;;;5027729;28;20961;-63
2022/07/04 00:21:00;;;;;;;3.83;3.45;;;15.50;78.10;;;;;;5041691;28;20201;-62
2022/07/04 00:23:27;;;;;;;3.55;3.08;;;;;;;;;;5023782;28;20315;-63
2022/07/04 00:25:54;;;;;;;5.32;3.38;;;15.50;78.30;;;;;;5040253;28;20208;-62
2022/07/04 00:28:21;;;;;;;4.88;3.28;;;15.60;79.30;;;;;;5011562;28;20205;-62
2022/07/04 00:30:48;;;;;;;5.93;3.58;;;15.60;80.40;;;;;;5019175;28;20204;-62
2022/07/04 00:33:17;;;;;;;7.47;3.30;;;;;;;;;;5033041;28;20200;-62
2022/07/04 00:35:43;;;;;;;3.60;3.22;;;15.80;82.00;;;;;;5024874;28;20205;-63
2022/07/04 00:38:10;;;;;;;12.05;3.72;;;15.80;81.00;;;;;;5038438;28;20229;-62
2022/07/04 00:40:39;;;;;;;4.55;3.55;;;15.80;80.70;;;;;;5039671;28;20193;-63
2022/07/04 00:43:06;;;;;;;4.13;3.63;;;15.70;78.30;;;;;;5020098;28;20741;-62
2022/07/04 00:45:33;;;;;;;6.38;3.63;;;15.70;78.00;;;;;;5025413;28;20208;-63
2022/07/04 00:47:59;;;;;;;6.88;3.60;;;15.70;78.50;;;;;;5037052;28;20201;-62
2022/07/04 00:50:28;;;;;;;3.75;3.40;;;15.70;79.30;;;;;;5012599;28;20196;-63
2022/07/04 00:52:55;;;;;;;4.35;3.50;;;16.00;82.70;;;;;;5035605;28;22075;-62
2022/07/04 00:55:24;;;;;;;8.65;3.85;;;15.70;78.90;;;;;;5032750;28;20190;-63
2022/07/04 00:57:51;;;;;;;6.65;4.00;;;;;;;;;;5014534;28;20928;-63
2022/07/04 01:00:19;;;;;;;7.20;3.78;;;15.60;76.90;;;;;;5030023;28;20212;-62
2022/07/04 01:02:46;;;;;;;4.20;3.60;;;15.70;77.00;;;;;;5029109;28;20293;-62
2022/07/04 01:05:15;;;;;;;5.93;3.85;;;15.60;77.80;;;;;;5026969;28;20205;-62
2022/07/04 01:07:43;;;;;;;6.10;3.88;;;15.60;76.50;;;;;;5008928;28;23443;-63
2022/07/04 01:10:10;;;;;;;6.75;3.83;;;15.60;76.60;;;;;;5025707;28;20205;-62
2022/07/04 01:12:38;;;;;;;6.13;4.20;;;15.40;76.50;;;;;;5016829;28;20215;-63
2022/07/04 01:15:06;;;;;;;6.03;3.33;;;15.40;77.30;;;;;;5008412;28;21090;-62
2022/07/04 01:17:33;;;;;;;5.13;3.67;;;15.50;73.40;;;;;;5041476;28;20207;-62
2022/07/04 01:19:59;;;;;;;4.82;3.78;;;15.50;73.80;;;;;;5012900;28;20698;-63
2022/07/04 01:22:28;;;;;;;10.27;3.30;;;15.50;75.60;;;;;;5040597;28;20240;-63
2022/07/04 01:24:54;;;;;;;4.15;3.10;;;15.40;71.60;;;;;;5028210;28;20221;-62
2022/07/04 01:27:21;;;;;;;4.82;3.55;;;15.40;75.10;;;;;;5038211;28;20232;-62
2022/07/04 01:29:48;;;;;;;3.92;3.50;;;15.30;73.40;;;;;;5008111;28;20584;-63
2022/07/04 01:32:16;;;;;;;5.55;4.00;;;15.30;73.80;;;;;;5034121;28;20209;-62
2022/07/04 01:34:43;;;;;;;3.70;3.40;;;15.30;74.10;;;;;;5027565;28;20207;-62
2022/07/04 01:37:09;;;;;;;6.55;3.97;;;15.20;71.00;;;;;;5028895;28;20982;-62
2022/07/04 01:39:38;;;;;;;6.10;3.53;;;15.10;77.20;;;;;;5032458;28;20223;-63
2022/07/04 01:42:05;;;;;;;5.60;3.85;;;15.50;73.70;;;;;;5039183;28;20208;-62
2022/07/04 01:44:32;;;;;;;5.38;3.95;;;15.10;75.70;;;;;;5014814;28;20239;-63
2022/07/04 01:46:59;;;;;;;3.60;3.28;;;15.00;78.90;;;;;;5030967;28;21351;-62
2022/07/04 01:49:26;;;;;;;3.85;3.47;;;15.00;73.10;;;;;;5035586;28;20223;-62
2022/07/04 01:51:54;;;;;;;7.22;3.45;;;13.30;79.80;;;;;;5019054;28;21114;-63
2022/07/04 01:54:21;;;;;;;4.28;3.33;;;14.90;76.90;;;;;;5040950;28;20204;-63
2022/07/04 01:56:49;;;;;;;5.68;3.42;;;15.00;75.10;;;;;;5037839;28;21143;-62
2022/07/04 01:59:16;;;;;;;6.95;3.60;;;14.90;74.60;;;;;;5023569;28;20208;-63
2022/07/04 02:01:41;;;;;;;5.88;3.28;;;15.00;73.40;;;;;;5028467;28;20207;-63
2022/07/04 02:04:08;;;;;;;4.55;3.17;;;14.90;68.80;;;;;;5037058;28;20225;-62
2022/07/04 02:06:36;;;;;;;4.60;3.78;;;14.80;68.40;;;;;;5026790;28;20224;-63
2022/07/04 02:09:19;;;;;;;5.70;3.53;;;15.00;75.60;;;;;;5037217;28;20197;-62
2022/07/04 02:14:34;;;;;;;4.82;3.85;;;14.70;71.90;;;;;;5009798;28;21181;-62
2022/07/04 02:17:01;;;;;;;5.95;3.67;;;15.00;81.10;;;;;;5032310;28;20905;-63
2022/07/04 02:19:29;;;;;;;7.72;3.58;;;14.70;75.70;;;;;;5036124;28;20661;-62
2022/07/04 02:21:56;;;;;;;7.38;3.83;;;14.90;84.30;;;;;;5020717;28;21092;-62
2022/07/04 02:24:23;;;;;;;4.28;3.58;;;14.70;78.00;;;;;;5041078;28;20240;-62
2022/07/04 02:26:50;;;;;;;4.82;3.53;;;14.70;79.50;;;;;;5039533;28;20212;-62
2022/07/04 02:29:17;;;;;;;5.80;3.60;;;14.90;83.10;;;;;;5024893;28;21575;-62
2022/07/04 02:31:45;;;;;;;8.00;4.05;;;14.70;76.50;;;;;;5019330;28;20216;-62
2022/07/04 02:34:12;;;;;;;12.23;3.67;;;14.60;76.20;;;;;;5015649;28;20206;-63
2022/07/04 02:36:40;;;;;;;7.22;3.45;;;14.70;77.30;;;;;;5035751;28;20232;-63
2022/07/04 02:39:07;;;;;;;4.82;4.00;;;14.70;87.10;;;;;;5021971;28;20215;-63
2022/07/04 02:41:34;;;;;;;8.20;3.92;;;14.60;84.80;;;;;;5029271;28;20680;-63
2022/07/04 02:44:02;;;;;;;5.50;3.45;;;14.70;81.70;;;;;;5038384;28;20229;-63
2022/07/04 02:46:29;;;;;;;6.00;3.47;;;14.60;82.50;;;;;;5024417;28;20213;-63
2022/07/04 02:48:57;;;;;;;6.10;3.70;;;14.70;78.60;;;;;;5026070;28;20200;-63
2022/07/04 02:51:24;;;;;;;4.93;3.83;;;14.60;77.90;;;;;;5037127;28;20659;-63
2022/07/04 02:53:51;;;;;;;7.43;3.95;;;14.80;81.50;;;;;;5016222;28;20211;-63
2022/07/04 02:56:18;;;;;;;6.53;3.55;;;14.60;76.40;;;;;;5030801;28;20232;-63
2022/07/04 02:58:45;;;;;;;3.70;3.40;;;14.50;73.70;;;;;;5027866;28;20193;-63
2022/07/04 03:01:12;;;;;;;6.38;3.88;;;14.50;75.40;;;;;;5017053;28;20710;-63
2022/07/04 03:03:39;;;;;;;9.68;3.80;;;15.50;81.30;;;;;;5033275;28;20225;-63
2022/07/04 03:06:08;;;;;;;3.97;3.65;;;14.30;74.40;;;;;;5023062;28;20205;-63
2022/07/04 03:08:35;;;;;;;6.05;3.60;;;14.40;76.00;;;;;;5025935;28;20208;-63
2022/07/04 03:11:03;;;;;;;4.38;3.47;;;14.40;79.80;;;;;;5026137;28;20202;-62
2022/07/04 03:13:29;;;;;;;4.82;3.58;;;14.40;74.40;;;;;;5025897;28;20221;-63
2022/07/04 03:15:56;;;;;;;5.13;3.95;;;14.50;78.90;;;;;;5042989;28;20198;-63
2022/07/04 03:18:23;;;;;;;3.63;3.30;;;14.40;74.70;;;;;;5022038;28;20213;-63
2022/07/04 03:20:50;;;;;;;5.18;3.40;;;14.40;80.40;;;;;;5025923;28;20216;-63
2022/07/04 03:23:18;;;;;;;4.50;3.50;;;14.40;76.00;;;;;;5038878;28;20221;-63
2022/07/04 03:25:45;;;;;;;7.65;3.70;;;15.00;75.10;;;;;;5011343;28;20847;-62
2022/07/04 03:28:12;;;;;;;6.63;3.85;;;14.40;75.00;;;;;;5026335;28;20209;-63
2022/07/04 03:30:38;;;;;;;6.05;3.55;;;12.60;77.90;;;;;;5021127;28;20204;-63
2022/07/04 03:33:05;;;;;;;7.32;3.35;;;14.30;74.30;;;;;;5024093;28;20209;-63
2022/07/04 03:35:32;;;;;;;4.80;3.45;;;14.50;80.70;;;;;;5037117;28;20704;-63
2022/07/04 03:37:59;;;;;;;6.35;3.50;;;14.50;75.80;;;;;;5042412;28;20778;-63
2022/07/04 03:40:30;;;;;;;3.78;3.25;;;14.30;77.90;;;;;;5024577;28;20200;-63
2022/07/04 03:42:58;;;;;;;4.10;3.42;;;14.50;72.60;;;;;;5039137;28;20211;-62
2022/07/04 03:45:25;;;;;;;4.53;2.97;;;14.50;74.30;;;;;;5030940;28;20319;-63
2022/07/04 03:47:52;;;;;;;5.85;3.63;;;14.40;78.30;;;;;;5005187;28;20213;-63
2022/07/04 03:50:19;;;;;;;6.47;3.50;;;14.60;72.70;;;;;;5033983;28;20216;-63
2022/07/04 03:52:46;;;;;;;7.93;3.67;;;14.50;71.50;;;;;;5017774;28;20205;-63
2022/07/04 03:55:12;;;;;;;5.30;3.75;;;14.50;70.30;;;;;;5024759;28;20219;-62
2022/07/04 03:57:41;;;;;;;10.10;3.53;;;14.70;74.40;;;;;;5025670;28;20734;-62
2022/07/04 04:00:09;;;;;;;5.18;3.80;;;14.80;73.60;;;;;;4996951;28;20231;-62
2022/07/04 04:02:36;;;;;;;6.35;3.45;;;14.60;68.00;;;;;;5043705;28;20624;-62
2022/07/04 04:07:48;;;;;;;5.57;3.75;;;14.60;66.80;;;;;;5018110;28;20240;-62
2022/07/04 04:10:14;;;;;;;7.05;4.38;;;14.70;62.90;;;;;;5016572;28;23590;-62
2022/07/04 04:12:43;;;;;;;8.07;4.18;;;14.80;62.00;;;;;;5030330;28;20311;-61
2022/07/04 04:15:10;;;;;;;6.32;3.70;;;14.60;62.70;;;;;;5024340;28;20876;-62
2022/07/04 04:17:37;;;;;;;4.07;3.10;;;14.80;58.10;;;;;;5042948;28;20197;-62
2022/07/04 04:20:04;;;;;;;10.27;3.80;;;14.80;57.50;;;;;;5015270;28;23206;-63
2022/07/04 04:22:31;;;;;;;12.63;3.63;;;14.80;58.40;;;;;;5026261;28;20200;-63
2022/07/04 04:24:58;;;;;;;8.15;3.30;;;15.10;65.90;;;;;;5012692;28;20603;-63
2022/07/04 04:27:25;;;;;;;4.88;3.92;;;14.30;59.00;;;;;;5027995;28;20201;-63
2022/07/04 04:29:53;;;;;;;5.72;3.55;;;14.70;62.10;;;;;;5019450;28;20212;-62
2022/07/04 04:32:21;;;;;;;4.18;3.40;;;15.00;58.90;;;;;;5037800;28;20207;-64
2022/07/04 04:34:48;;;;;;;4.03;3.25;;;15.10;56.10;;;;;;5016940;28;20270;-63
2022/07/04 04:37:15;;;;;;;7.43;3.85;;;15.00;55.90;;;;;;5022982;28;20239;-63
2022/07/04 04:39:42;;;;;;;5.43;3.13;;;13.30;55.40;;;;;;5031229;28;20197;-61
2022/07/04 04:42:09;;;;;;;5.35;3.10;;;15.30;56.60;;;;;;5016125;28;20231;-63
2022/07/04 04:44:35;;;;;;;5.75;3.08;;;15.20;55.30;;;;;;5022330;28;20229;-63
2022/07/04 04:47:04;;;;;;;3.78;3.00;;;15.20;51.90;;;;;;5014887;28;20204;-63
2022/07/04 04:49:31;;;;;;;7.00;3.70;;;13.30;52.50;;;;;;5015421;28;20213;-63
2022/07/04 04:51:58;;;;;;;4.05;3.65;;;15.30;51.50;;;;;;5016252;28;20329;-63
2022/07/04 04:54:24;;;;;;;3.60;2.95;;;15.30;53.30;;;;;;5026593;28;20206;-63
2022/07/04 04:56:51;;;;;;;9.02;3.53;;;15.30;52.10;;;;;;5032121;28;20687;-63
2022/07/04 04:59:18;;;;;;;5.97;3.22;;;15.40;51.60;;;;;;5020936;28;20725;-63
2022/07/04 05:01:45;;;;;;;9.00;3.63;;;15.60;53.80;;;;;;5032757;28;20217;-63
2022/07/04 05:04:14;;;;;;;8.50;3.15;;;15.30;48.20;;;;;;5011749;28;20252;-63
2022/07/04 05:06:41;;;;;;;8.13;3.30;;;16.50;46.30;;;;;;5020676;28;20245;-63
2022/07/04 05:09:08;;;;;;;5.60;3.10;;;15.50;43.30;;;;;;5005085;28;20231;-63
2022/07/04 05:11:35;;;;;;;5.32;2.90;;;15.50;44.10;;;;;;5026116;28;20968;-63
2022/07/04 05:14:02;;;;;;;4.85;3.67;;;15.70;47.80;;;;;;5015522;28;20205;-63
2022/07/04 05:16:29;;;;;;;5.55;3.08;;;15.70;44.60;;;;;;5038330;28;20204;-62
2022/07/04 05:18:56;;;;;;;8.15;4.13;;;15.60;40.20;;;;;;5033993;28;20209;-63
2022/07/04 05:21:26;;;;;;;3.60;3.13;;;15.90;36.40;;;;;;5015680;28;20210;-63
2022/07/04 05:23:53;;;;;;;8.88;3.72;;;15.90;33.80;;;;;;5004610;28;20244;-63
2022/07/04 05:26:19;;;;;;;6.85;3.53;;;15.90;30.00;;;;;;5033784;28;20217;-63
2022/07/04 05:28:46;;;;;;;6.85;4.00;;;15.90;29.40;;;;;;5013713;28;20980;-62
2022/07/04 05:31:13;;;;;;;4.03;3.35;;;16.20;29.80;;;;;;5029356;28;20215;-62
2022/07/04 05:33:40;;;;;;;8.18;3.53;;;16.20;26.90;;;;;;5036019;28;20232;-62
2022/07/04 05:36:07;;;;;;;5.85;3.85;;;16.10;24.00;;;;;;5025091;28;20216;-62
2022/07/04 05:38:35;;;;;;;7.63;3.78;;;16.10;18.50;;;;;;5020624;28;20233;-63
2022/07/04 05:41:02;;;;;;;6.25;3.60;;;16.10;18.40;;;;;;5035118;28;20205;-63
2022/07/04 05:43:29;;;;;;;4.43;3.35;;;16.10;17.30;;;;;;5028136;28;20196;-63
2022/07/04 05:45:56;;;;;;;6.70;3.55;;;16.10;17.70;;;;;;5026324;28;20211;-63
2022/07/04 05:48:23;;;;;;;8.82;2.90;;;16.10;1.00;;;;;;5024086;28;20687;-63
2022/07/04 05:50:49;;;;;;;8.93;3.17;;;16.20;1.00;;;;;;5026565;28;22079;-63
2022/07/04 05:53:16;;;;;;;7.32;3.20;;;16.10;1.00;;;;;;5018850;28;20238;-63
2022/07/04 05:55:44;;;;;;;6.47;3.30;;;16.10;1.00;;;;;;5026595;28;20200;-63
2022/07/04 05:58:11;;;;;;;3.47;2.75;;;16.10;1.00;;;;;;5030390;28;20222;-63
2022/07/04 06:00:39;;;;;;;4.28;2.72;;;16.30;1.00;;;;;;5000383;28;21232;-63
2022/07/04 06:03:06;;;;;;;5.43;2.33;;;;;;;;;;5033070;28;20212;-64
2022/07/04 06:05:34;;;;;;;9.80;2.63;;;;;;;;;;5019970;28;20237;-63
2022/07/04 06:08:01;;;;;;;8.10;2.90;;;17.50;1.00;;;;;;5011863;28;20981;-64
2022/07/04 06:10:28;;;;;;;4.88;2.60;;;16.40;1.00;;;;;;5025494;28;20862;-63
2022/07/04 06:12:56;;;;;;;3.30;2.13;;;16.70;1.00;;;;;;5018599;28;20211;-63
2022/07/04 06:15:23;;;;;;;2.85;2.30;;;16.30;1.00;;;;;;5023488;28;20201;-63
2022/07/04 06:17:51;;;;;;;3.00;2.03;;;16.50;1.00;;;;;;5005748;28;21303;-63
2022/07/04 06:20:18;;;;;;;4.93;2.30;;;16.50;1.00;;;;;;5023567;28;20247;-64
2022/07/04 06:22:47;;;;;;;5.90;2.40;;;16.50;1.00;;;;;;5008997;28;20219;-63
2022/07/04 06:25:15;;;;;;;7.03;2.10;;;16.70;1.00;;;;;;5018463;28;20233;-63
2022/07/04 06:27:43;;;;;;;6.18;2.35;;;16.70;1.00;;;;;;5028886;28;20205;-62
2022/07/04 06:30:12;;;;;;;4.68;2.50;;;16.80;1.00;;;;;;5016811;28;20229;-63
2022/07/04 06:32:44;;;;;;;6.70;2.55;;;16.60;1.00;;;;;;5024330;28;20224;-62
2022/07/04 06:37:55;;;;;;;2.17;1.95;;;16.90;99.90;;;;;;5024325;28;20239;-62
2022/07/04 06:40:22;;;;;;;3.10;2.13;;;16.80;99.90;;;;;;5016855;28;20690;-62
2022/07/04 06:42:49;;;;;;;3.92;2.22;;;16.80;99.90;;;;;;5024080;28;20733;-62
2022/07/04 06:45:17;;;;;;;2.45;1.80;;;16.90;99.90;;;;;;5037288;28;20232;-62
2022/07/04 06:47:44;;;;;;;5.95;1.92;;;16.90;99.90;;;;;;5027338;28;20863;-63
2022/07/04 06:50:11;;;;;;;5.00;2.28;;;16.90;99.90;;;;;;5033227;28;20700;-62
2022/07/04 06:52:38;;;;;;;8.38;2.00;;;16.80;99.90;;;;;;5032059;28;20216;-63
2022/07/04 06:55:06;;;;;;;3.53;1.70;;;17.10;99.90;;;;;;5023061;28;20353;-62
2022/07/04 06:57:34;;;;;;;4.18;1.80;;;;;;;;;;5034321;28;20216;-62
2022/07/04 07:00:02;;;;;;;3.70;1.80;;;;;;;;;;5028008;28;20871;-63
2022/07/04 07:02:31;;;;;;;1.90;1.70;;;17.10;99.90;;;;;;5035157;28;20209;-62
2022/07/04 07:04:58;;;;;;;5.40;1.75;;;17.10;99.90;;;;;;5023818;28;20275;-63
2022/07/04 07:07:26;;;;;;;2.47;1.80;;;18.10;99.90;;;;;;5043939;28;20202;-63
2022/07/04 07:09:53;;;;;;;4.57;2.10;;;17.20;99.90;;;;;;5020206;28;20209;-63
2022/07/04 07:12:20;;;;;;;5.32;1.80;;;17.30;99.90;;;;;;5023832;28;20620;-62
2022/07/04 07:14:47;;;;;;;3.03;2.00;;;17.20;99.90;;;;;;5023300;28;20710;-62
2022/07/04 07:17:15;;;;;;;5.65;1.77;;;17.40;99.90;;;;;;5032373;28;20221;-63
2022/07/04 07:19:43;;;;;;;3.90;1.60;;;17.40;99.90;;;;;;5029446;28;21054;-63
2022/07/04 07:22:10;;;;;;;2.55;1.30;;;17.40;99.90;;;;;;5039277;28;20884;-63
2022/07/04 07:24:37;;;;;;;2.03;1.42;;;17.50;99.90;;;;;;5034932;28;20228;-63
2022/07/04 07:27:05;;;;;;;6.40;1.70;;;17.50;99.90;;;;;;5016067;28;20220;-63
2022/07/04 07:29:32;;;;;;;2.22;1.20;;;17.50;99.90;;;;;;5011834;28;20221;-63
2022/07/04 07:31:59;;;;;;;2.42;1.63;;;17.80;99.90;;;;;;5024100;28;20239;-63
2022/07/04 07:34:26;;;;;;;2.20;1.50;;;17.60;99.90;;;;;;5030944;28;20213;-63
2022/07/04 07:36:55;;;;;;;3.10;1.48;;;;;;;;;;5018522;28;20660;-62
2022/07/04 07:39:22;;;;;;;6.07;1.95;;;17.60;99.90;;;;;;5034134;28;20907;-62
2022/07/04 07:41:48;;;;;;;2.50;1.60;;;17.70;99.90;;;;;;5007674;28;20236;-63
2022/07/04 07:44:15;;;;;;;2.08;1.52;;;17.70;99.90;;;;;;5024814;28;20597;-63
2022/07/04 07:46:42;;;;;;;6.28;1.70;;;17.70;99.90;;;;;;5036963;28;20224;-64
2022/07/04 07:49:09;;;;;;;3.63;1.20;;;17.80;99.90;;;;;;5049199;28;20217;-64
2022/07/04 07:51:36;;;;;;;4.20;1.67;;;17.80;99.90;;;;;;5027106;28;20201;-64
2022/07/04 07:54:04;;;;;;;1.95;1.35;;;17.80;99.90;;;;;;5043720;28;20670;-63
2022/07/04 07:56:31;;;;;;;16.27;1.60;;;17.80;99.90;;;;;;5013332;28;20209;-63
2022/07/04 07:58:58;;;;;;;1.42;1.00;;;;;;;;;;5035524;28;20229;-64
2022/07/04 08:01:25;;;;;;;3.30;1.10;;;17.90;99.90;;;;;;5022468;28;20201;-64
2022/07/04 08:06:36;;;;;;;2.88;1.40;;;18.00;99.90;;;;;;5016800;28;20231;-61
2022/07/04 08:09:05;;;;;;;5.60;1.25;;;18.10;99.90;;;;;;5034219;28;20225;-61
2022/07/04 08:11:32;;;;;;;2.22;1.30;;;20.80;99.90;;;;;;5024110;28;20747;-62
2022/07/04 08:13:59;;;;;;;1.83;1.17;;;;;;;;;;5022591;28;21041;-61
2022/07/04 08:16:26;;;;;;;2.03;1.08;;;18.10;99.90;;;;;;5026569;28;20428;-62
2022/07/04 08:18:52;;;;;;;4.28;1.52;;;18.10;99.90;;;;;;5020394;28;20225;-61
2022/07/04 08:21:19;;;;;;;4.43;1.33;;;18.10;99.90;;;;;;5026417;28;20227;-62
2022/07/04 08:23:46;;;;;;;2.95;1.27;;;18.20;99.90;;;;;;5035641;28;20209;-62
2022/07/04 08:26:14;;;;;;;2.33;1.10;;;18.30;99.90;;;;;;5029783;28;20236;-62
2022/07/04 08:28:41;;;;;;;2.63;1.30;;;18.40;99.90;;;;;;5008790;28;20225;-62
2022/07/04 08:31:08;;;;;;;4.50;1.30;;;18.40;99.90;;;;;;5030061;28;20209;-63
2022/07/04 08:33:35;;;;;;;4.78;1.38;;;17.30;99.90;;;;;;5034095;28;20200;-62
2022/07/04 08:36:02;;;;;;;5.88;1.42;;;18.50;99.90;;;;;;5016580;28;20324;-63
2022/07/04 08:38:28;;;;;;;2.95;1.30;;;18.50;99.90;;;;;;5017305;28;20240;-62
2022/07/04 08:40:58;;;;;;;2.65;1.20;;;18.70;99.90;;;;;;5029352;28;20586;-62
2022/07/04 08:43:28;;;;;;;1.80;1.10;;;18.60;99.90;;;;;;5019754;28;20213;-62
2022/07/04 08:45:55;;;;;;;2.15;1.15;;;18.70;99.90;;;;;;5030662;28;20287;-63
2022/07/04 08:48:26;;;;;;;2.10;1.00;;;18.70;99.90;;;;;;5035365;28;20724;-63
2022/07/04 08:50:57;;;;;;;1.00;0.98;;;18.70;99.90;;;;;;5034191;28;21470;-63
2022/07/04 08:53:27;;;;;;;2.58;1.20;;;18.90;99.90;;;;;;5013480;28;20237;-63
2022/07/04 08:58:43;;;;;;;4.38;1.73;;;18.80;99.90;;;;;;5015392;28;20216;-63
2022/07/04 09:01:14;;;;;;;2.30;1.15;;;18.90;99.90;;;;;;5021840;28;20223;-63
2022/07/04 09:03:42;;;;;;;3.05;1.30;;;18.90;99.90;;;;;;5033428;28;20208;-64
2022/07/04 09:06:09;;;;;;;4.07;1.17;;;18.90;99.90;;;;;;5029000;28;20228;-63
2022/07/04 09:08:36;;;;;;;2.53;1.17;;;19.10;99.90;;;;;;5025952;28;20235;-62
2022/07/04 09:11:04;;;;;;;1.17;1.08;;;19.10;99.90;;;;;;5018687;28;20205;-63
2022/07/04 09:13:31;;;;;;;2.95;1.17;;;19.20;99.90;;;;;;5016918;28;20210;-63
2022/07/04 09:16:01;;;;;;;3.92;1.50;;;19.10;99.90;;;;;;5035181;28;20212;-64
2022/07/04 09:18:30;;;;;;;5.63;1.65;;;19.10;99.90;;;;;;5029421;28;20614;-64
2022/07/04 09:20:59;;;;;;;2.53;1.23;;;19.20;99.90;;;;;;5036086;28;20201;-63
2022/07/04 09:23:28;;;;;;;1.48;1.20;;;19.20;99.90;;;;;;5015050;28;20361;-64
2022/07/04 09:26:09;;;;;;;3.15;1.33;;;19.40;99.90;;;;;;5035552;28;20667;-64
2022/07/04 09:28:36;;;;;;;2.08;1.25;;;19.20;99.90;;;;;;5021913;28;20208;-64
2022/07/04 09:31:14;;;;;;;3.63;1.20;;;19.20;99.90;;;;;;5032176;28;20746;-64
2022/07/04 09:33:46;;;;;;;1.45;1.25;;;19.30;99.90;;;;;;5034039;28;20223;-63
2022/07/04 09:36:14;;;;;;;3.92;1.40;;;19.40;99.90;;;;;;5020073;28;20213;-63
2022/07/04 09:38:41;;;;;;;2.60;1.27;;;19.50;99.90;;;;;;5028224;28;20239;-63
2022/07/04 09:41:29;;;;;;;4.30;1.33;;;19.60;99.90;;;;;;5036866;28;20221;-64
2022/07/04 09:44:05;;;;;;;1.98;1.33;;;19.70;99.90;;;;;;5016802;28;20225;-63
2022/07/04 09:46:34;;;;;;;2.60;1.27;;;19.80;99.90;;;;;;5021587;28;20232;-64
2022/07/04 09:49:01;;;;;;;3.05;1.33;;;;;;;;;;5027387;28;20200;-64
2022/07/04 09:51:39;;;;;;;2.88;1.10;;;19.90;99.90;;;;;;5017558;28;20209;-63
2022/07/04 09:54:22;;;;;;;3.45;1.35;;;19.80;99.90;;;;;;5021130;28;20244;-63
2022/07/04 09:56:51;;;;;;;5.25;1.33;;;20.20;99.90;;;;;;5029939;28;20205;-62
2022/07/04 09:59:18;;;;;;;3.45;1.30;;;20.30;99.90;;;;;;5018697;28;20214;-62
2022/07/04 10:01:46;;;;;;;2.95;1.35;;;20.40;99.90;;;;;;5034087;28;20206;-63
2022/07/04 10:04:13;;;;;;;3.40;1.10;;;21.50;99.90;;;;;;5018594;28;20979;-63
2022/07/04 10:06:43;;;;;;;6.88;1.10;;;20.30;99.90;;;;;;5040409;28;20699;-63
2022/07/04 10:09:11;;;;;;;5.03;1.95;;;20.00;99.90;;;;;;5013424;28;20225;-63
2022/07/04 10:11:39;;;;;;;10.55;1.73;;;20.30;99.90;;;;;;5034145;28;20228;-63
2022/07/04 10:14:07;;;;;;;1.33;1.00;;;20.20;99.90;;;;;;5017985;28;20228;-64
2022/07/04 10:16:35;;;;;;;2.65;1.30;;;20.30;99.90;;;;;;5021981;28;20837;-63
2022/07/04 10:19:04;;;;;;;3.72;1.67;;;20.50;99.90;;;;;;5011257;28;20200;-63
2022/07/04 10:21:32;;;;;;;3.35;1.48;;;20.40;99.90;;;;;;5036417;28;20281;-62
2022/07/04 10:23:59;;;;;;;4.28;1.23;;;20.80;99.90;;;;;;5012492;28;20221;-62
2022/07/04 10:26:28;;;;;;;2.35;1.10;;;20.80;99.90;;;;;;5042201;28;20294;-63
2022/07/04 10:28:55;;;;;;;4.45;1.33;;;20.70;99.90;;;;;;5035087;28;20198;-63
2022/07/04 10:31:24;;;;;;;2.22;1.40;;;20.60;99.90;;;;;;5024919;28;20205;-63
2022/07/04 10:33:52;;;;;;;1.25;1.10;;;20.50;99.90;;;;;;5037383;28;20207;-62
2022/07/04 10:36:22;;;;;;;4.80;1.35;;;20.40;99.90;;;;;;5029170;28;20202;-63
2022/07/04 10:38:51;;;;;;;2.55;1.30;;;20.40;99.90;;;;;;5014795;28;20240;-63
2022/07/04 10:41:21;;;;;;;1.02;0.93;;;20.40;99.90;;;;;;5030428;28;20209;-63
2022/07/04 10:44:02;;;;;;;10.95;1.30;;;20.40;99.90;;;;;;5030002;28;20707;-64
2022/07/04 10:46:51;;;;;;;1.05;0.90;;;20.40;99.90;;;;;;5022231;28;20244;-63
2022/07/04 10:49:21;;;;;;;1.17;1.08;;;20.30;99.90;;;;;;5026621;28;20569;-63
2022/07/04 10:51:51;;;;;;;9.05;1.27;;;20.20;99.90;;;;;;5027852;28;22450;-62
2022/07/04 10:54:19;;;;;;;2.92;1.10;;;;;;;;;;5021029;28;20272;-63
2022/07/04 10:56:56;;;;;;;2.42;1.00;;;20.50;99.90;;;;;;5019824;28;20229;-63
2022/07/04 10:59:25;;;;;;;1.75;0.82;;;20.50;99.90;;;;;;5023662;28;20212;-62
2022/07/04 11:02:12;;;;;;;1.05;0.93;;;20.80;99.90;;;;;;4987694;28;20346;-62
2022/07/04 11:04:51;;;;;;;0.70;0.70;;;20.80;99.90;;;;;;5025072;28;20217;-62
2022/07/04 11:07:20;;;;;;;2.22;0.95;;;20.80;99.90;;;;;;5022914;28;20307;-62
2022/07/04 11:10:07;;;;;;;1.88;1.00;;;20.70;99.90;;;;;;5022274;28;20215;-63
2022/07/04 11:13:07;;;;;;;1.85;1.10;;;20.70;99.90;;;;;;5017877;28;20229;-62
2022/07/04 11:16:13;;;;;;;2.47;0.90;;;20.50;99.90;;;;;;4984548;28;20236;-63
2022/07/04 11:18:41;;;;;;;1.98;1.00;;;20.50;99.90;;;;;;5009989;28;20544;-64
2022/07/04 11:21:20;;;;;;;2.17;1.10;;;20.40;99.90;;;;;;4995620;28;20419;-63
2022/07/04 11:23:55;;;;;;;2.05;1.05;;;20.60;99.90;;;;;;4996489;28;20826;-63
2022/07/04 11:26:23;;;;;;;2.67;1.08;;;20.70;99.90;;;;;;5032318;28;20723;-64
2022/07/04 11:28:50;;;;;;;2.10;1.02;;;20.70;99.90;;;;;;5016225;28;20216;-63
2022/07/04 11:31:18;;;;;;;2.42;0.82;;;20.80;99.90;;;;;;5022560;28;20206;-63
2022/07/04 11:33:46;;;;;;;2.45;0.90;;;20.80;99.90;;;;;;4998128;28;20607;-64
2022/07/04 11:36:16;;;;;;;3.13;1.02;;;20.50;99.90;;;;;;5026163;28;20272;-64
2022/07/04 11:38:48;;;;;;;6.53;1.30;;;20.70;99.90;;;;;;5033457;28;20233;-64
2022/07/04 11:46:51;;;;;;;1.88;0.90;;;20.60;99.90;;;;;;5017858;28;20252;-63
2022/07/04 11:49:17;;;;;;;2.53;1.25;;;20.70;99.90;;;;;;5024743;28;20205;-63
2022/07/04 11:51:47;;;;;;;2.95;1.33;;;20.50;99.90;;;;;;5026207;28;20956;-63
2022/07/04 11:54:13;;;;;;;3.58;1.10;;;20.30;99.90;;;;;;5036578;28;20231;-62
2022/07/04 11:56:42;;;;;;;2.20;1.00;;;20.20;99.90;;;;;;5022121;28;20298;-63
2022/07/04 11:59:13;;;;;;;2.90;1.35;;;20.10;99.90;;;;;;5022958;28;20227;-63
2022/07/04 12:01:41;;;;;;;5.22;1.17;;;19.80;99.90;;;;;;5019602;28;20924;-63
2022/07/04 12:04:16;;;;;;;4.65;1.50;;;19.80;99.90;;;;;;5023574;28;20208;-63
2022/07/04 12:06:44;;;;;;;2.97;1.30;;;20.00;99.90;;;;;;5030818;28;20658;-62
2022/07/04 12:09:11;;;;;;;3.35;1.48;;;20.20;99.90;;;;;;5032391;28;20580;-62
2022/07/04 12:11:58;;;;;;;2.70;1.23;;;20.20;99.90;;;;;;5034401;28;20201;-63
2022/07/04 12:14:27;;;;;;;5.45;1.67;;;20.30;99.90;;;;;;5022455;28;20232;-62
2022/07/04 12:17:16;;;;;;;3.53;1.45;;;20.40;99.90;;;;;;5034021;28;20228;-62
2022/07/04 12:19:56;;;;;;;3.50;1.40;;;19.80;99.90;;;;;;5012062;28;20209;-64
2022/07/04 12:22:29;;;;;;;6.28;1.58;;;20.50;99.90;;;;;;5028623;28;20220;-62
2022/07/04 12:24:56;;;;;;;7.20;1.85;;;20.40;99.90;;;;;;5014643;28;20232;-63
2022/07/04 12:27:26;;;;;;;2.65;1.20;;;20.20;99.90;;;;;;5026972;28;20224;-63
2022/07/04 12:29:54;;;;;;;3.03;1.40;;;20.20;99.90;;;;;;5024833;28;20216;-62
2022/07/04 12:32:22;;;;;;;3.08;1.48;;;20.10;99.90;;;;;;5031397;28;20229;-63
2022/07/04 12:34:51;;;;;;;3.15;1.20;;;20.30;99.90;;;;;;5031801;28;20219;-63
2022/07/04 12:37:18;;;;;;;3.38;1.35;;;20.10;99.90;;;;;;5014539;28;20232;-63
2022/07/04 12:39:46;;;;;;;3.92;1.42;;;19.00;99.90;;;;;;5019266;28;20225;-63
2022/07/04 12:42:14;;;;;;;2.05;1.20;;;19.90;99.90;;;;;;5032747;28;20232;-63
2022/07/04 12:44:45;;;;;;;1.70;1.17;;;20.00;99.90;;;;;;5047748;28;20197;-63
2022/07/04 12:47:13;;;;;;;2.30;1.23;;;21.60;99.90;;;;;;5006594;28;20236;-63
2022/07/04 12:49:45;;;;;;;4.60;1.40;;;20.40;99.90;;;;;;5039331;28;20231;-63
2022/07/04 12:52:15;;;;;;;3.28;1.70;;;20.30;99.90;;;;;;5010734;28;21475;-63
2022/07/04 12:54:44;;;;;;;1.48;1.10;;;20.30;99.90;;;;;;5017695;28;20519;-62
2022/07/04 12:57:14;;;;;;;3.05;1.40;;;20.50;99.90;;;;;;5026838;28;20220;-62
2022/07/04 12:59:43;;;;;;;4.05;1.48;;;20.50;99.90;;;;;;5035761;28;20281;-62
2022/07/04 13:02:11;;;;;;;3.45;1.25;;;20.90;99.90;;;;;;5020247;28;20938;-64
2022/07/04 13:04:39;;;;;;;3.47;1.45;;;21.00;99.90;;;;;;5027152;28;20205;-64
2022/07/04 13:07:14;;;;;;;4.57;1.40;;;23.70;99.90;;;;;;5022403;28;20229;-63
2022/07/04 13:09:42;;;;;;;3.78;1.30;;;21.30;99.90;;;;;;5022967;28;20224;-63
2022/07/04 13:12:25;;;;;;;3.47;1.38;;;;;;;;;;5021322;28;20213;-62
2022/07/04 13:14:55;;;;;;;3.63;1.30;;;21.00;99.90;;;;;;5030442;28;20316;-63
2022/07/04 13:17:23;;;;;;;1.58;1.35;;;21.30;99.90;;;;;;5033607;28;20202;-63
2022/07/04 13:19:52;;;;;;;2.35;1.27;;;;;;;;;;5045488;28;20204;-62